Aviation Digital Data Service (ADDS)

Output produced by METARs form (1718 UTC 23 July 2018)
found at http://aviationweather.gov/adds/metars/
 
METAR text: KRNT 231653Z 34005KT 10SM CLR 23/14 A3011 RMK AO2 SLP202 T02330139
Conditions at: KRNT (RENTON , WA, US) observed 1653 UTC 23 July 2018
Temperature: 23.3°C (74°F)
Dewpoint: 13.9°C (57°F) [RH = 56%]
Pressure (altimeter): 30.11 inches Hg (1019.7 mb)
[Sea-level pressure: 1020.2 mb]
Winds: from the NNW (340 degrees) at 6 MPH (5 knots; 2.6 m/s)
Visibility: 10 or more miles (16+ km)
Ceiling: at least 12,000 feet AGL
Clouds: sky clear below 12,000 feet AGL
Weather: no significant weather observed at this time

METAR text: KRNT 231553Z VRB03KT 10SM CLR 22/13 A3012 RMK AO2 SLP203 T02220133
Conditions at: KRNT (RENTON , WA, US) observed 1553 UTC 23 July 2018
Temperature: 22.2°C (72°F)
Dewpoint: 13.3°C (56°F) [RH = 57%]
Pressure (altimeter): 30.12 inches Hg (1020.1 mb)
[Sea-level pressure: 1020.3 mb]
Winds: variable direction winds at 3 MPH (3 knots; 1.6 m/s)
Visibility: 10 or more miles (16+ km)
Ceiling: at least 12,000 feet AGL
Clouds: sky clear below 12,000 feet AGL
Weather: no significant weather observed at this time